Time;durP1;ratioP1;P1;durP2;ratioP2;P2;SDS_P1;SDS_P2;PMS_P1;PMS_P2;Temp;Humidity;BMP_temperature;BMP_pressure;BME280_temperature;BME280_humidity;BME280_pressure;Samples;Min_cycle;Max_cycle;Signal;HPM_P1;HPM_P2
2022/07/02 00:01:37;;;;;;;;;;;13.00;99.90;;;;;;5073536;28;19910;-73
2022/07/02 00:04:04;;;;;;;;;;;13.00;99.90;;;;;;5074400;28;19904;-73
2022/07/02 00:06:31;;;;;;;;;;;13.00;99.90;;;;;;5055613;28;19930;-73
2022/07/02 00:08:58;;;;;;;;;;;12.90;99.90;;;;;;5074258;28;19912;-73
2022/07/02 00:11:25;;;;;;;;;;;12.90;99.90;;;;;;5073485;28;20355;-73
2022/07/02 00:13:52;;;;;;;;;;;12.80;99.90;;;;;;5073898;28;19995;-73
2022/07/02 00:16:17;;;;;;;;;;;12.80;99.90;;;;;;5073382;28;20404;-73
2022/07/02 00:18:43;;;;;;;;;;;12.80;99.90;;;;;;5074445;28;19943;-73
2022/07/02 00:21:09;;;;;;;;;;;12.70;99.90;;;;;;5073993;28;19912;-73
2022/07/02 00:23:34;;;;;;;;;;;12.70;99.90;;;;;;5072935;28;19964;-73
2022/07/02 00:26:14;;;;;;;;;;;12.70;99.90;;;;;;5073962;28;19908;-73
2022/07/02 00:28:41;;;;;;;;;;;12.60;99.90;;;;;;5073852;28;19905;-74
2022/07/02 00:31:07;;;;;;;;;;;12.50;99.90;;;;;;5073731;28;19904;-74
2022/07/02 00:33:35;;;;;;;;;;;12.50;99.90;;;;;;5073162;28;19904;-73
2022/07/02 00:36:01;;;;;;;;;;;12.50;99.90;;;;;;5073822;28;20113;-74
2022/07/02 00:38:27;;;;;;;;;;;12.40;99.90;;;;;;5072752;28;19923;-73
2022/07/02 00:40:52;;;;;;;;;;;12.40;99.90;;;;;;5073291;28;20333;-73
2022/07/02 00:43:18;;;;;;;;;;;12.50;99.90;;;;;;5072835;28;19995;-74
2022/07/02 00:45:44;;;;;;;;;;;12.50;99.90;;;;;;5073297;28;19958;-73
2022/07/02 00:48:11;;;;;;;;;;;12.40;99.90;;;;;;5073466;28;19928;-73
2022/07/02 00:50:37;;;;;;;;;;;12.40;99.90;;;;;;5073057;28;19962;-73
2022/07/02 00:53:03;;;;;;;;;;;12.40;99.90;;;;;;5073083;28;19905;-73
2022/07/02 00:55:28;;;;;;;;;;;12.50;99.90;;;;;;5072819;28;19913;-73
2022/07/02 00:57:54;;;;;;;;;;;12.50;99.90;;;;;;5073254;28;19950;-73
2022/07/02 01:00:20;;;;;;;;;;;12.50;99.90;;;;;;5072722;28;19905;-73
2022/07/02 01:02:46;;;;;;;;;;;12.50;99.90;;;;;;5073180;28;19952;-73
2022/07/02 01:05:19;;;;;;;;;;;12.50;99.90;;;;;;5055312;28;19912;-73
2022/07/02 01:07:45;;;;;;;;;;;12.60;99.90;;;;;;5072851;28;19943;-73
2022/07/02 01:10:18;;;;;;;;;;;12.60;99.90;;;;;;5073076;28;19959;-73
2022/07/02 01:12:48;;;;;;;;;;;12.60;99.90;;;;;;5072111;28;19904;-73
2022/07/02 01:15:14;;;;;;;;;;;12.60;99.90;;;;;;5072823;28;19937;-73
2022/07/02 01:17:40;;;;;;;;;;;12.60;99.90;;;;;;5072659;28;19999;-73
2022/07/02 01:20:06;;;;;;;;;;;12.70;99.90;;;;;;5073247;28;20008;-73
2022/07/02 01:22:32;;;;;;;;;;;12.70;99.90;;;;;;5072157;28;20481;-74
2022/07/02 01:24:58;;;;;;;;;;;12.80;99.90;;;;;;5073003;28;19958;-73
2022/07/02 01:27:24;;;;;;;;;;;12.70;99.90;;;;;;5072519;28;19951;-74
2022/07/02 01:29:50;;;;;;;;;;;12.70;99.90;;;;;;5072992;28;19913;-73
2022/07/02 01:32:16;;;;;;;;;;;12.70;99.90;;;;;;5072561;28;20393;-73
2022/07/02 01:34:43;;;;;;;;;;;12.70;99.90;;;;;;5072694;28;19986;-73
2022/07/02 01:37:12;;;;;;;;;;;12.70;99.90;;;;;;5072873;28;20042;-73
2022/07/02 01:39:38;;;;;;;;;;;12.70;99.90;;;;;;5072044;28;19908;-74
2022/07/02 01:42:05;;;;;;;;;;;12.80;99.90;;;;;;5054833;28;19904;-73
2022/07/02 01:44:31;;;;;;;;;;;12.70;99.90;;;;;;5072209;28;19904;-73
2022/07/02 01:46:56;;;;;;;;;;;12.80;99.90;;;;;;5072622;28;19908;-73
2022/07/02 01:49:22;;;;;;;;;;;12.80;99.90;;;;;;5071841;28;19913;-73
2022/07/02 01:51:47;;;;;;;;;;;12.80;99.90;;;;;;5072712;28;20362;-73
2022/07/02 01:54:13;;;;;;;;;;;12.80;99.90;;;;;;5072708;28;19908;-73
2022/07/02 01:56:39;;;;;;;;;;;12.80;99.90;;;;;;5072005;28;20000;-73
2022/07/02 01:59:05;;;;;;;;;;;12.80;99.90;;;;;;5072225;28;19952;-73
2022/07/02 02:01:31;;;;;;;;;;;12.80;99.90;;;;;;5071881;28;20271;-73
2022/07/02 02:03:56;;;;;;;;;;;12.80;99.90;;;;;;5072716;28;19966;-73
2022/07/02 02:06:22;;;;;;;;;;;12.70;99.90;;;;;;5072341;28;19939;-73
2022/07/02 02:08:48;;;;;;;;;;;12.70;99.90;;;;;;5072437;28;19916;-73
2022/07/02 02:11:13;;;;;;;;;;;12.70;99.90;;;;;;5054099;28;20396;-73
2022/07/02 02:13:39;;;;;;;;;;;12.70;99.90;;;;;;5071320;28;19986;-73
2022/07/02 02:16:05;;;;;;;;;;;12.70;99.90;;;;;;5072256;28;19908;-73
2022/07/02 02:18:30;;;;;;;;;;;12.70;99.90;;;;;;5072001;28;19987;-73
2022/07/02 02:20:56;;;;;;;;;;;12.70;99.90;;;;;;5071868;28;19905;-73
2022/07/02 02:23:21;;;;;;;;;;;12.70;99.90;;;;;;5071350;28;19958;-74
2022/07/02 02:25:47;;;;;;;;;;;12.70;99.90;;;;;;5075490;28;19905;-74
2022/07/02 02:28:13;;;;;;;;;;;12.70;99.90;;;;;;5075940;28;20216;-74
2022/07/02 02:30:38;;;;;;;;;;;12.70;99.90;;;;;;5075283;28;19912;-74
2022/07/02 02:33:04;;;;;;;;;;;12.80;99.90;;;;;;5075546;28;19904;-74
2022/07/02 02:35:29;;;;;;;;;;;12.70;99.90;;;;;;5075293;28;19912;-74
2022/07/02 02:37:55;;;;;;;;;;;12.80;99.90;;;;;;5075346;28;20003;-74
2022/07/02 02:40:20;;;;;;;;;;;12.70;99.90;;;;;;5075314;28;19905;-74
2022/07/02 02:42:46;;;;;;;;;;;12.70;99.90;;;;;;5075514;28;19948;-74
2022/07/02 02:45:12;;;;;;;;;;;12.70;99.90;;;;;;5075813;28;19904;-74
2022/07/02 02:47:37;;;;;;;;;;;12.80;99.90;;;;;;5075121;28;20347;-74
2022/07/02 02:50:03;;;;;;;;;;;12.80;99.90;;;;;;5075438;28;19919;-74
2022/07/02 02:52:29;;;;;;;;;;;12.80;99.90;;;;;;5075176;28;19904;-75
2022/07/02 02:54:55;;;;;;;;;;;12.80;99.90;;;;;;5075759;28;20397;-74
2022/07/02 02:57:20;;;;;;;;;;;12.80;99.90;;;;;;5075596;28;19912;-75
2022/07/02 02:59:46;;;;;;;;;;;12.70;99.90;;;;;;5075325;28;19966;-74
2022/07/02 03:02:11;;;;;;;;;;;12.70;99.90;;;;;;5075342;28;19904;-74
2022/07/02 03:04:37;;;;;;;;;;;12.70;99.90;;;;;;5074493;28;20007;-74
2022/07/02 03:07:02;;;;;;;;;;;12.70;99.90;;;;;;5075129;28;20248;-74
2022/07/02 03:09:28;;;;;;;;;;;12.70;99.90;;;;;;5074356;28;19919;-74
2022/07/02 03:11:53;;;;;;;;;;;12.70;99.90;;;;;;5075531;28;19911;-74
2022/07/02 03:14:19;;;;;;;;;;;12.70;99.90;;;;;;5074937;28;19944;-74
2022/07/02 03:16:45;;;;;;;;;;;12.70;99.90;;;;;;5074704;28;19909;-74
2022/07/02 03:19:10;;;;;;;;;;;12.70;99.90;;;;;;5057349;28;19934;-74
2022/07/02 03:21:36;;;;;;;;;;;12.60;99.90;;;;;;5074743;28;20350;-74
2022/07/02 03:24:01;;;;;;;;;;;12.60;99.90;;;;;;5075277;28;20236;-74
2022/07/02 03:26:27;;;;;;;;;;;12.60;99.90;;;;;;5074624;28;19912;-74
2022/07/02 03:28:52;;;;;;;;;;;12.70;99.90;;;;;;5075074;28;20270;-74
2022/07/02 03:31:18;;;;;;;;;;;12.60;99.90;;;;;;5075489;28;19905;-74
2022/07/02 03:33:44;;;;;;;;;;;12.60;99.90;;;;;;5074388;28;19951;-74
2022/07/02 03:36:11;;;;;;;;;;;12.60;99.90;;;;;;5073954;28;19919;-74
2022/07/02 03:38:40;;;;;;;;;;;12.60;99.90;;;;;;5074318;28;19917;-74
2022/07/02 03:41:08;;;;;;;;;;;12.60;99.90;;;;;;5074799;28;19915;-74
2022/07/02 03:43:35;;;;;;;;;;;12.70;99.90;;;;;;5074050;28;20432;-74
2022/07/02 03:46:01;;;;;;;;;;;12.60;99.90;;;;;;5074728;28;19908;-74
2022/07/02 03:48:26;;;;;;;;;;;12.70;99.90;;;;;;5074161;28;19905;-74
2022/07/02 03:50:52;;;;;;;;;;;12.60;99.90;;;;;;5074583;28;19912;-74
2022/07/02 03:53:18;;;;;;;;;;;12.60;99.90;;;;;;5074767;28;19904;-74
2022/07/02 03:55:44;;;;;;;;;;;12.60;99.90;;;;;;5073719;28;19908;-75
2022/07/02 03:58:10;;;;;;;;;;;12.60;99.90;;;;;;5074290;28;19958;-74
2022/07/02 04:00:35;;;;;;;;;;;12.50;99.90;;;;;;5074143;28;19962;-75
2022/07/02 04:03:01;;;;;;;;;;;12.50;99.90;;;;;;5074830;28;19904;-74
2022/07/02 04:05:26;;;;;;;;;;;12.50;99.90;;;;;;5073717;28;19950;-75
2022/07/02 04:07:52;;;;;;;;;;;12.40;99.90;;;;;;5074134;28;20309;-74
2022/07/02 04:10:17;;;;;;;;;;;12.40;99.90;;;;;;5074087;28;20007;-74
2022/07/02 04:12:43;;;;;;;;;;;12.40;99.90;;;;;;5073342;28;19904;-74
2022/07/02 04:15:09;;;;;;;;;;;12.40;99.90;;;;;;5074448;28;19904;-74
2022/07/02 04:17:34;;;;;;;;;;;12.40;99.90;;;;;;5073645;28;19927;-74
2022/07/02 04:20:00;;;;;;;;;;;12.40;99.90;;;;;;5074166;28;20347;-74
2022/07/02 04:22:26;;;;;;;;;;;12.40;99.90;;;;;;5073570;28;19953;-74
2022/07/02 04:24:51;;;;;;;;;;;12.40;99.90;;;;;;5073760;28;20359;-74
2022/07/02 04:27:18;;;;;;;;;;;12.40;99.90;;;;;;5073738;28;19904;-74
2022/07/02 04:29:43;;;;;;;;;;;12.40;99.90;;;;;;5073178;28;19916;-74
2022/07/02 04:32:09;;;;;;;;;;;12.40;99.90;;;;;;5073889;28;20374;-74
2022/07/02 04:34:35;;;;;;;;;;;12.40;99.90;;;;;;5072969;28;20409;-74
2022/07/02 04:37:00;;;;;;;;;;;12.40;99.90;;;;;;5073464;28;19914;-73
2022/07/02 04:39:26;;;;;;;;;;;12.40;99.90;;;;;;5073740;28;19949;-74
2022/07/02 04:41:51;;;;;;;;;;;12.40;99.90;;;;;;5072922;28;19905;-74
2022/07/02 04:44:17;;;;;;;;;;;12.40;99.90;;;;;;5055753;28;20355;-74
2022/07/02 04:46:43;;;;;;;;;;;12.40;99.90;;;;;;5072653;28;19991;-74
2022/07/02 04:49:08;;;;;;;;;;;12.40;99.90;;;;;;5073611;28;19912;-74
2022/07/02 04:51:34;;;;;;;;;;;12.50;99.90;;;;;;5055004;28;20278;-74
2022/07/02 04:53:59;;;;;;;;;;;12.40;99.90;;;;;;5073832;28;19908;-74
2022/07/02 04:56:27;;;;;;;;;;;12.40;99.90;;;;;;5073122;28;19977;-74
2022/07/02 04:58:53;;;;;;;;;;;12.50;99.90;;;;;;5072982;28;19904;-74
2022/07/02 05:01:18;;;;;;;;;;;12.50;99.90;;;;;;5073384;28;20370;-74
2022/07/02 05:03:44;;;;;;;;;;;12.60;99.90;;;;;;5072686;28;19904;-74
2022/07/02 05:06:09;;;;;;;;;;;12.70;99.90;;;;;;5072905;28;20351;-74
2022/07/02 05:08:35;;;;;;;;;;;12.70;99.90;;;;;;5072765;28;19915;-74
2022/07/02 05:11:01;;;;;;;;;;;12.70;99.90;;;;;;5073516;28;19904;-74
2022/07/02 05:13:26;;;;;;;;;;;12.70;99.90;;;;;;5073185;28;19905;-74
2022/07/02 05:15:52;;;;;;;;;;;12.80;99.90;;;;;;5072503;28;20269;-74
2022/07/02 05:18:17;;;;;;;;;;;13.00;99.90;;;;;;5073121;28;19904;-74
2022/07/02 05:20:43;;;;;;;;;;;13.00;99.90;;;;;;5072483;28;20371;-74
2022/07/02 05:23:09;;;;;;;;;;;13.10;99.90;;;;;;5073057;28;19904;-74
2022/07/02 05:25:34;;;;;;;;;;;13.20;99.90;;;;;;5072597;28;20350;-75
2022/07/02 05:28:00;;;;;;;;;;;13.30;99.90;;;;;;5054970;28;19930;-74
2022/07/02 05:30:26;;;;;;;;;;;13.40;99.90;;;;;;5073042;28;19916;-74
2022/07/02 05:32:51;;;;;;;;;;;13.40;99.90;;;;;;5072320;28;19951;-74
2022/07/02 05:35:17;;;;;;;;;;;13.50;99.90;;;;;;5072583;28;19905;-74
2022/07/02 05:37:42;;;;;;;;;;;13.60;99.90;;;;;;5072061;28;20286;-73
2022/07/02 05:40:08;;;;;;;;;;;13.60;99.90;;;;;;5054691;28;19911;-74
2022/07/02 05:42:34;;;;;;;;;;;13.60;99.90;;;;;;5054260;28;20426;-74
2022/07/02 05:45:00;;;;;;;;;;;13.70;99.90;;;;;;5072989;28;19916;-75
2022/07/02 05:47:26;;;;;;;;;;;13.80;99.90;;;;;;5072594;28;20366;-75
2022/07/02 05:49:52;;;;;;;;;;;13.80;99.90;;;;;;5072150;28;20156;-74
2022/07/02 05:52:18;;;;;;;;;;;13.90;99.90;;;;;;5072686;28;19905;-74
2022/07/02 05:54:44;;;;;;;;;;;13.90;99.90;;;;;;5071746;28;20317;-74
2022/07/02 05:57:09;;;;;;;;;;;14.00;99.90;;;;;;5054544;28;19904;-74
2022/07/02 05:59:36;;;;;;;;;;;14.10;99.90;;;;;;5073473;28;19908;-74
2022/07/02 06:02:02;;;;;;;;;;;14.10;99.90;;;;;;5076790;28;19951;-74
2022/07/02 06:04:28;;;;;;;;;;;14.10;99.90;;;;;;5076436;28;19940;-74
2022/07/02 06:09:38;;;;;;;;;;;14.30;99.90;;;;;;5075987;28;19919;-74
2022/07/02 06:12:03;;;;;;;;;;;14.30;99.90;;;;;;5076450;28;19908;-75
2022/07/02 06:14:29;;;;;;;;;;;14.30;99.90;;;;;;5076232;28;19950;-74
2022/07/02 06:16:54;;;;;;;;;;;14.40;99.90;;;;;;5075740;28;19904;-74
2022/07/02 06:19:20;;;;;;;;;;;14.50;99.90;;;;;;5076866;28;19950;-74
2022/07/02 06:21:45;;;;;;;;;;;14.60;99.90;;;;;;5075461;28;19908;-74
2022/07/02 06:24:11;;;;;;;;;;;14.70;99.90;;;;;;5076517;28;19958;-74
2022/07/02 06:26:37;;;;;;;;;;;14.70;99.90;;;;;;5075738;28;19943;-74
2022/07/02 06:29:03;;;;;;;;;;;14.70;99.90;;;;;;5076311;28;20377;-74
2022/07/02 06:31:28;;;;;;;;;;;14.80;99.90;;;;;;5076354;28;19904;-74
2022/07/02 06:33:54;;;;;;;;;;;14.80;99.90;;;;;;5075293;28;19900;-75
2022/07/02 06:36:22;;;;;;;;;;;15.00;99.90;;;;;;5076131;28;19904;-75
2022/07/02 06:38:49;;;;;;;;;;;15.00;99.90;;;;;;5075267;28;19962;-74
2022/07/02 06:42:18;;;;;;;;;;;15.00;99.90;;;;;;5075827;28;19912;-75
2022/07/02 06:44:00;;;;;;;;;;;14.90;99.90;;;;;;5075472;28;19934;-74
2022/07/02 06:46:25;;;;;;;;;;;14.90;99.90;;;;;;5075766;28;20298;-74
2022/07/02 06:48:51;;;;;;;;;;;15.00;99.90;;;;;;5075177;28;19904;-75
2022/07/02 06:51:16;;;;;;;;;;;15.10;99.90;;;;;;5076207;28;19935;-74
2022/07/02 06:53:42;;;;;;;;;;;15.10;99.90;;;;;;5075020;28;19905;-74
2022/07/02 06:56:07;;;;;;;;;;;15.20;99.90;;;;;;5075641;28;19965;-74
2022/07/02 06:58:33;;;;;;;;;;;15.40;99.90;;;;;;5076062;28;19905;-75
2022/07/02 07:00:58;;;;;;;;;;;15.40;99.90;;;;;;5075424;28;19935;-74
2022/07/02 07:03:24;;;;;;;;;;;15.50;99.90;;;;;;5057579;28;19905;-75
2022/07/02 07:05:51;;;;;;;;;;;15.50;99.90;;;;;;5074935;28;20351;-74
2022/07/02 07:08:17;;;;;;;;;;;15.50;99.90;;;;;;5075321;28;19998;-75
2022/07/02 07:10:43;;;;;;;;;;;15.50;99.90;;;;;;5073472;28;20011;-75
2022/07/02 07:13:09;;;;;;;;;;;15.40;99.90;;;;;;5075537;28;20307;-76
2022/07/02 07:15:34;;;;;;;;;;;15.20;99.90;;;;;;5075094;28;19904;-75
2022/07/02 07:18:00;;;;;;;;;;;15.10;99.90;;;;;;5074713;28;19966;-75
2022/07/02 07:20:29;;;;;;;;;;;15.10;99.90;;;;;;5075149;28;20278;-74
2022/07/02 07:22:55;;;;;;;;;;;15.10;99.90;;;;;;5074317;28;19904;-75
2022/07/02 07:25:21;;;;;;;;;;;15.20;99.90;;;;;;5057373;28;20034;-74
2022/07/02 07:27:48;;;;;;;;;;;15.20;99.90;;;;;;5074344;28;19905;-74
2022/07/02 07:30:13;;;;;;;;;;;15.20;99.90;;;;;;5075209;28;19912;-74
2022/07/02 07:32:39;;;;;;;;;;;15.40;99.90;;;;;;5074490;28;20278;-75
2022/07/02 07:35:05;;;;;;;;;;;15.50;99.90;;;;;;5074530;28;19955;-74
2022/07/02 07:37:30;;;;;;;;;;;15.70;99.90;;;;;;5056821;28;19923;-75
2022/07/02 07:39:56;;;;;;;;;;;15.90;99.90;;;;;;5074483;28;19908;-75
2022/07/02 07:42:22;;;;;;;;;;;16.10;99.90;;;;;;5074653;28;19914;-75
2022/07/02 07:44:48;;;;;;;;;;;16.10;99.90;;;;;;5074353;28;20266;-75
2022/07/02 07:47:14;;;;;;;;;;;16.10;99.90;;;;;;5074688;28;19912;-75
2022/07/02 07:49:39;;;;;;;;;;;16.00;99.90;;;;;;5074203;28;19913;-75
2022/07/02 07:52:05;;;;;;;;;;;15.90;99.90;;;;;;5074503;28;19908;-75
2022/07/02 07:54:31;;;;;;;;;;;15.80;99.90;;;;;;5074386;28;19998;-75
2022/07/02 07:56:56;;;;;;;;;;;15.60;99.90;;;;;;5074045;28;19905;-75
2022/07/02 07:59:22;;;;;;;;;;;15.50;99.90;;;;;;5074779;28;20003;-75
2022/07/02 08:01:47;;;;;;;;;;;15.70;99.90;;;;;;5073815;28;19909;-75
2022/07/02 08:04:13;;;;;;;;;;;15.70;99.90;;;;;;5074388;28;20002;-75
2022/07/02 08:06:38;;;;;;;;;;;15.70;99.90;;;;;;5074683;28;19958;-75
2022/07/02 08:09:04;;;;;;;;;;;15.90;99.90;;;;;;5055665;28;19917;-75
2022/07/02 08:11:29;;;;;;;;;;;16.10;99.90;;;;;;5074206;28;19936;-74
2022/07/02 08:13:55;;;;;;;;;;;16.20;99.90;;;;;;5073369;28;19909;-75
2022/07/02 08:16:21;;;;;;;;;;;16.30;99.90;;;;;;5074117;28;20366;-75
2022/07/02 08:18:46;;;;;;;;;;;16.30;99.90;;;;;;5073208;28;20262;-74
2022/07/02 08:21:12;;;;;;;;;;;16.30;99.90;;;;;;5074141;28;19908;-75
2022/07/02 08:23:37;;;;;;;;;;;16.10;99.90;;;;;;5073345;28;20351;-75
2022/07/02 08:26:03;;;;;;;;;;;16.10;99.90;;;;;;5072875;28;19962;-74
2022/07/02 08:28:29;;;;;;;;;;;16.20;99.90;;;;;;5055762;28;19908;-75
2022/07/02 08:30:54;;;;;;;;;;;16.10;99.90;;;;;;5073096;28;20384;-74
2022/07/02 08:33:20;;;;;;;;;;;16.20;99.90;;;;;;5074105;28;19913;-75
2022/07/02 08:35:45;;;;;;;;;;;16.30;99.90;;;;;;5072708;28;19909;-75
2022/07/02 08:38:11;;;;;;;;;;;16.30;99.90;;;;;;5073144;28;19939;-75
2022/07/02 08:40:38;;;;;;;;;;;16.50;99.90;;;;;;5073372;28;19904;-74
2022/07/02 08:43:04;;;;;;;;;;;16.50;99.90;;;;;;5072977;28;20086;-74
2022/07/02 08:45:31;;;;;;;;;;;16.60;99.90;;;;;;5073080;28;20003;-74
2022/07/02 08:47:57;;;;;;;;;;;16.60;99.90;;;;;;5072366;28;19951;-74
2022/07/02 08:50:23;;;;;;;;;;;16.50;99.90;;;;;;5072991;28;19919;-74
2022/07/02 08:52:50;;;;;;;;;;;16.50;99.90;;;;;;5072431;28;19905;-74
2022/07/02 08:55:17;;;;;;;;;;;16.50;99.90;;;;;;5072950;28;19932;-74
2022/07/02 08:57:43;;;;;;;;;;;16.50;99.90;;;;;;5072854;28;20259;-74
2022/07/02 09:00:08;;;;;;;;;;;16.60;99.90;;;;;;5072358;28;20351;-75
2022/07/02 09:02:35;;;;;;;;;;;16.60;99.90;;;;;;5055158;28;19965;-74
2022/07/02 09:05:02;;;;;;;;;;;16.40;99.90;;;;;;5072316;28;20239;-74
2022/07/02 09:07:28;;;;;;;;;;;16.50;99.90;;;;;;5054743;28;20392;-75
2022/07/02 09:09:54;;;;;;;;;;;16.50;99.90;;;;;;5071903;28;20054;-75
2022/07/02 09:12:23;;;;;;;;;;;16.50;99.90;;;;;;5072569;28;19905;-74
2022/07/02 09:14:48;;;;;;;;;;;16.70;99.90;;;;;;5072156;28;19904;-74
2022/07/02 09:17:14;;;;;;;;;;;16.70;99.90;;;;;;5073109;28;20315;-75
2022/07/02 09:19:40;;;;;;;;;;;16.80;99.90;;;;;;5055017;28;19905;-75
2022/07/02 09:22:06;;;;;;;;;;;16.80;99.90;;;;;;5054034;28;19904;-75
2022/07/02 09:24:36;;;;;;;;;;;16.70;99.90;;;;;;5072881;28;19904;-74
2022/07/02 09:27:03;;;;;;;;;;;16.60;99.90;;;;;;5072117;28;19983;-75
2022/07/02 09:29:29;;;;;;;;;;;16.50;99.90;;;;;;5054979;28;20361;-75
2022/07/02 09:31:54;;;;;;;;;;;16.30;99.90;;;;;;5072036;28;19952;-75
2022/07/02 09:34:27;;;;;;;;;;;16.00;99.90;;;;;;5071459;28;20432;-75
2022/07/02 09:36:52;;;;;;;;;;;15.90;99.90;;;;;;5053497;28;19905;-75
2022/07/02 09:39:28;;;;;;;;;;;15.70;99.90;;;;;;5071809;28;19920;-75
2022/07/02 09:41:54;;;;;;;;;;;15.80;99.90;;;;;;5053829;28;20326;-75
2022/07/02 09:44:20;;;;;;;;;;;15.80;99.90;;;;;;5072656;28;19987;-75
2022/07/02 09:46:45;;;;;;;;;;;15.90;99.90;;;;;;5072543;28;19954;-75
2022/07/02 09:49:12;;;;;;;;;;;16.00;99.90;;;;;;5053921;28;19981;-74
2022/07/02 09:51:45;;;;;;;;;;;16.30;99.90;;;;;;5054523;28;19904;-75
2022/07/02 09:54:16;;;;;;;;;;;16.40;99.90;;;;;;5072030;28;19904;-75
2022/07/02 09:56:49;;;;;;;;;;;16.40;99.90;;;;;;5072562;28;19905;-75
2022/07/02 09:59:14;;;;;;;;;;;16.30;99.90;;;;;;5072704;28;20350;-75
2022/07/02 10:01:44;;;;;;;;;;;16.30;99.90;;;;;;5072034;28;19947;-75
2022/07/02 10:04:10;;;;;;;;;;;16.40;99.90;;;;;;5071636;28;19909;-74
2022/07/02 10:06:36;;;;;;;;;;;16.60;99.90;;;;;;5071925;28;19920;-75
2022/07/02 10:09:01;;;;;;;;;;;16.60;99.90;;;;;;5071552;28;19998;-75
2022/07/02 10:11:28;;;;;;;;;;;16.60;99.90;;;;;;5072054;28;20464;-75
2022/07/02 10:13:54;;;;;;;;;;;16.60;99.90;;;;;;5071712;28;19904;-75
2022/07/02 10:16:21;;;;;;;;;;;16.60;99.90;;;;;;5072086;28;19904;-74
2022/07/02 10:18:47;;;;;;;;;;;16.50;99.90;;;;;;5072365;28;19940;-75
2022/07/02 10:21:13;;;;;;;;;;;16.70;99.90;;;;;;5071370;28;19991;-75
2022/07/02 10:23:39;;;;;;;;;;;16.70;99.90;;;;;;5072010;28;20377;-75
2022/07/02 10:26:05;;;;;;;;;;;16.70;99.90;;;;;;5071636;28;20343;-75
2022/07/02 10:28:33;;;;;;;;;;;16.70;99.90;;;;;;5072568;28;19958;-75
2022/07/02 10:30:59;;;;;;;;;;;16.60;99.90;;;;;;5071624;28;20251;-75
2022/07/02 10:33:43;;;;;;;;;;;16.50;99.90;;;;;;5072078;28;19905;-75
2022/07/02 10:36:10;;;;;;;;;;;16.50;99.90;;;;;;5071543;28;19909;-74
2022/07/02 10:38:40;;;;;;;;;;;16.50;99.90;;;;;;5072075;28;19943;-74
2022/07/02 10:41:09;;;;;;;;;;;16.60;99.90;;;;;;5071322;28;19908;-75
2022/07/02 10:43:37;;;;;;;;;;;16.80;99.90;;;;;;5071710;28;20275;-75
2022/07/02 10:46:02;;;;;;;;;;;17.00;99.90;;;;;;5074055;28;19974;-75
2022/07/02 10:48:28;;;;;;;;;;;17.10;99.90;;;;;;5075709;28;20347;-75
2022/07/02 10:50:55;;;;;;;;;;;17.00;99.90;;;;;;5056922;28;19916;-75
2022/07/02 10:53:21;;;;;;;;;;;17.10;99.90;;;;;;5075825;28;20015;-75
2022/07/02 10:55:53;;;;;;;;;;;17.40;99.90;;;;;;5075238;28;19973;-75
2022/07/02 10:58:20;;;;;;;;;;;17.70;99.90;;;;;;5075120;28;20379;-75
2022/07/02 11:00:45;;;;;;;;;;;17.70;99.90;;;;;;5057537;28;20343;-75
2022/07/02 11:03:12;;;;;;;;;;;17.80;99.90;;;;;;5074753;28;19915;-75
2022/07/02 11:05:56;;;;;;;;;;;17.90;99.90;;;;;;5075533;28;20228;-75
2022/07/02 11:08:45;;;;;;;;;;;17.90;99.90;;;;;;5075334;28;19912;-75
2022/07/02 11:11:11;;;;;;;;;;;17.90;99.90;;;;;;5063710;28;19913;-75
2022/07/02 11:13:42;;;;;;;;;;;17.90;99.90;;;;;;5075393;28;19913;-75
2022/07/02 11:16:21;;;;;;;;;;;17.90;99.90;;;;;;5074523;28;20320;-75
2022/07/02 11:18:47;;;;;;;;;;;17.90;99.90;;;;;;5075243;28;19909;-75
2022/07/02 11:21:12;;;;;;;;;;;17.90;99.90;;;;;;5074447;28;19910;-75
2022/07/02 11:23:38;;;;;;;;;;;17.80;99.90;;;;;;5075329;28;19995;-75
2022/07/02 11:26:04;;;;;;;;;;;17.70;99.90;;;;;;5074231;28;19904;-75
2022/07/02 11:28:30;;;;;;;;;;;17.70;99.90;;;;;;5074912;28;19911;-75
2022/07/02 11:30:58;;;;;;;;;;;17.70;99.90;;;;;;5074333;28;20005;-75
2022/07/02 11:33:24;;;;;;;;;;;17.90;99.90;;;;;;5075265;28;19910;-75
2022/07/02 11:35:51;;;;;;;;;;;18.10;99.90;;;;;;5075061;28;19991;-75
2022/07/02 11:38:17;;;;;;;;;;;18.30;99.90;;;;;;5074119;28;20014;-76
2022/07/02 11:40:43;;;;;;;;;;;18.40;99.90;;;;;;5074730;28;19909;-75
2022/07/02 11:43:15;;;;;;;;;;;18.50;99.90;;;;;;5073884;28;19970;-75
2022/07/02 11:45:41;;;;;;;;;;;18.60;99.90;;;;;;5074406;28;20362;-76
2022/07/02 11:48:16;;;;;;;;;;;18.70;99.90;;;;;;5074036;28;19911;-75
2022/07/02 11:50:42;;;;;;;;;;;18.90;99.90;;;;;;5056764;28;20015;-75
2022/07/02 11:53:08;;;;;;;;;;;19.00;99.90;;;;;;5073810;28;19999;-75
2022/07/02 11:55:34;;;;;;;;;;;19.10;99.90;;;;;;5074503;28;19911;-75
2022/07/02 11:57:59;;;;;;;;;;;19.30;99.90;;;;;;5073166;28;20335;-76
2022/07/02 12:00:29;;;;;;;;;;;19.40;99.90;;;;;;5074754;28;20385;-75
2022/07/02 12:02:54;;;;;;;;;;;19.30;99.90;;;;;;5074285;28;19999;-76
2022/07/02 12:05:20;;;;;;;;;;;19.10;99.90;;;;;;5073741;28;19950;-75
2022/07/02 12:07:46;;;;;;;;;;;18.90;99.90;;;;;;5074295;28;19912;-76
2022/07/02 12:10:12;;;;;;;;;;;18.80;99.90;;;;;;5073210;28;19957;-76
2022/07/02 12:12:38;;;;;;;;;;;18.60;99.90;;;;;;5074101;28;19944;-76
2022/07/02 12:15:04;;;;;;;;;;;18.70;99.90;;;;;;5073670;28;19911;-76
2022/07/02 12:17:30;;;;;;;;;;;18.80;99.90;;;;;;5056132;28;19911;-75
2022/07/02 12:19:56;;;;;;;;;;;18.80;99.90;;;;;;5073855;28;20367;-75
2022/07/02 12:22:33;;;;;;;;;;;18.80;99.90;;;;;;5073668;28;20371;-75
2022/07/02 12:24:59;;;;;;;;;;;18.90;99.90;;;;;;5073224;28;19911;-76
2022/07/02 12:27:25;;;;;;;;;;;19.10;99.90;;;;;;5073522;28;20271;-75
2022/07/02 12:29:54;;;;;;;;;;;19.10;99.90;;;;;;5073662;28;19978;-75
2022/07/02 12:32:27;;;;;;;;;;;19.20;99.90;;;;;;5072883;28;20432;-75
2022/07/02 12:34:56;;;;;;;;;;;19.20;99.90;;;;;;5073609;28;19904;-75
2022/07/02 12:37:23;;;;;;;;;;;19.20;99.90;;;;;;5055075;28;19916;-75
2022/07/02 12:39:49;;;;;;;;;;;19.30;99.90;;;;;;5073385;28;20305;-75
2022/07/02 12:42:16;;;;;;;;;;;19.20;99.90;;;;;;5073012;28;19950;-75
2022/07/02 12:44:53;;;;;;;;;;;19.30;99.90;;;;;;5073471;28;20337;-76
2022/07/02 12:47:25;;;;;;;;;;;19.50;99.90;;;;;;5072947;28;19904;-76
2022/07/02 12:49:55;;;;;;;;;;;19.60;99.90;;;;;;5073360;28;19966;-75
2022/07/02 12:52:20;;;;;;;;;;;19.60;99.90;;;;;;5072543;28;19908;-76
2022/07/02 12:54:46;;;;;;;;;;;19.50;99.90;;;;;;5073430;28;20023;-75
2022/07/02 12:57:12;;;;;;;;;;;19.50;99.90;;;;;;5072695;28;19951;-75
2022/07/02 12:59:38;;;;;;;;;;;19.40;99.90;;;;;;5073253;28;19904;-75
2022/07/02 13:02:03;;;;;;;;;;;19.40;99.90;;;;;;5072155;28;19905;-75
2022/07/02 13:04:29;;;;;;;;;;;19.30;99.90;;;;;;5054090;28;19930;-75
2022/07/02 13:06:55;;;;;;;;;;;19.40;99.90;;;;;;5072763;28;20263;-76
2022/07/02 13:09:21;;;;;;;;;;;19.30;99.90;;;;;;5071943;28;19919;-75
2022/07/02 13:11:47;;;;;;;;;;;19.30;99.90;;;;;;5073057;28;19911;-75
2022/07/02 13:14:12;;;;;;;;;;;19.30;99.90;;;;;;5072297;28;19999;-75
2022/07/02 13:16:38;;;;;;;;;;;19.30;99.90;;;;;;5072782;28;19904;-75
2022/07/02 13:19:03;;;;;;;;;;;19.20;99.90;;;;;;5072260;28;19905;-75
2022/07/02 13:21:29;;;;;;;;;;;19.20;99.90;;;;;;5072913;28;19917;-76
2022/07/02 13:23:55;;;;;;;;;;;19.20;99.90;;;;;;5072806;28;19927;-75
2022/07/02 13:26:20;;;;;;;;;;;19.20;99.90;;;;;;5072289;28;20030;-75
2022/07/02 13:28:46;;;;;;;;;;;19.50;99.90;;;;;;5073051;28;19908;-75
2022/07/02 13:31:11;;;;;;;;;;;19.60;99.90;;;;;;5071960;28;19919;-76
2022/07/02 13:33:37;;;;;;;;;;;19.70;99.90;;;;;;5071755;28;19915;-76
2022/07/02 13:36:02;;;;;;;;;;;19.90;99.90;;;;;;5071844;28;19911;-75
2022/07/02 13:38:28;;;;;;;;;;;20.00;99.90;;;;;;5072520;28;19978;-75
2022/07/02 13:40:54;;;;;;;;;;;20.20;99.90;;;;;;5072732;28;19904;-75
2022/07/02 13:43:19;;;;;;;;;;;20.40;99.90;;;;;;5071916;28;19962;-75
2022/07/02 13:45:45;;;;;;;;;;;20.50;99.90;;;;;;5072301;28;20390;-75
2022/07/02 13:48:10;;;;;;;;;;;20.50;99.90;;;;;;5072060;28;19908;-76
2022/07/02 13:50:36;;;;;;;;;;;20.50;99.90;;;;;;5072407;28;19916;-75
2022/07/02 13:53:01;;;;;;;;;;;20.30;99.90;;;;;;5072607;28;20369;-75
2022/07/02 13:55:27;;;;;;;;;;;20.10;99.90;;;;;;5054284;28;19999;-75
2022/07/02 13:57:52;;;;;;;;;;;20.00;99.90;;;;;;5072679;28;19904;-80
2022/07/02 14:00:18;;;;;;;;;;;19.60;99.90;;;;;;5054345;28;19954;-80
2022/07/02 14:02:44;;;;;;;;;;;19.30;99.90;;;;;;5054545;28;19904;-80
2022/07/02 14:05:10;;;;;;;;;;;18.90;99.90;;;;;;5071860;28;19942;-82
2022/07/02 14:07:35;;;;;;;;;;;18.50;99.90;;;;;;5054319;28;19958;-79
2022/07/02 14:10:01;;;;;;;;;;;17.90;99.90;;;;;;5072479;28;19920;-76
2022/07/02 14:12:27;;;;;;;;;;;17.50;99.90;;;;;;5054071;28;19905;-79
2022/07/02 14:14:53;;;;;;;;;;;17.10;99.90;;;;;;5072337;28;20270;-80